Jester, Texas
Current Conditions -  °F | °C
As of 12:53 PM on Friday 24 Oct 2014 (Local Time) from KCRS Reporting Station
Clear Clear  
Wind Chill: 76°   Ceiling: Unl
Heat Index: 76°   Visibility: 10mi
Dew Point: 56°   Wind: 7mph
Humidity: 50%   Direction: 160°SSE
Pressure: 30.17"   Gusts: NA
Location:  31.9458°N, 96.5713°W
Report Text: KCRS 241753Z AUTO 16006KT 10SM CLR 24/13 A3017 RMK AO2 SLP214 T02440133 10244 20133 58007
Loading
Personal Weather Stations






























Interactive Weather Map
Tropical Storm Tracking
New forecast layout! Learn more

10-Day Weather Forecast

Advertisements
Track Severe Weather on mobile